Time;durP1;ratioP1;P1;durP2;ratioP2;P2;SDS_P1;SDS_P2;PMS_P1;PMS_P2;Temp;Humidity;BMP_temperature;BMP_pressure;BME280_temperature;BME280_humidity;BME280_pressure;Samples;Min_cycle;Max_cycle;Signal;HPM_P1;HPM_P2
2023/05/31 00:00:49;;;;;;;2.42;2.20;;;;;;;;;;6281643;22;20065;-84
2023/05/31 00:03:15;;;;;;;2.30;2.00;;;;;;;;;;6307136;22;20046;-84
2023/05/31 00:05:42;;;;;;;2.13;1.92;;;;;;;;;;6307469;22;20047;-84
2023/05/31 00:08:08;;;;;;;2.58;2.08;;;;;;;;;;6280739;22;20015;-84
2023/05/31 00:10:34;;;;;;;2.20;1.85;;;;;;;;;;6280618;22;20058;-84
2023/05/31 00:13:00;;;;;;;2.72;1.80;;;;;;;;;;6280419;22;20015;-85
2023/05/31 00:15:26;;;;;;;2.97;2.42;;;;;;;;;;6280253;22;20023;-85
2023/05/31 00:17:52;;;;;;;4.38;2.17;;;;;;;;;;6280320;22;20047;-84
2023/05/31 00:20:18;;;;;;;2.33;2.13;;;;;;;;;;6306278;22;20023;-84
2023/05/31 00:22:44;;;;;;;2.15;1.95;;;;;;;;;;6280430;22;20516;-84
2023/05/31 00:25:10;;;;;;;2.42;1.58;;;;;;;;;;6306322;22;20098;-84
2023/05/31 00:27:36;;;;;;;2.28;2.08;;;;;;;;;;6280649;22;20033;-84
2023/05/31 00:30:03;;;;;;;2.78;1.85;;;;;;;;;;6306241;22;20022;-85
2023/05/31 00:32:29;;;;;;;2.03;1.92;;;;;;;;;;6280881;22;20453;-85
2023/05/31 00:34:55;;;;;;;2.90;2.67;;;;;;;;;;6280829;22;20026;-85
2023/05/31 00:37:21;;;;;;;4.07;2.28;;;;;;;;;;6308129;22;20011;-85
2023/05/31 00:39:47;;;;;;;3.08;2.47;;;;;;;;;;6283384;22;20015;-85
2023/05/31 00:42:13;;;;;;;2.72;2.25;;;;;;;;;;6282119;22;20445;-85
2023/05/31 00:44:39;;;;;;;3.20;1.75;;;;;;;;;;6308083;22;20095;-85
2023/05/31 00:47:08;;;;;;;4.05;2.00;;;;;;;;;;6308115;22;20094;-85
2023/05/31 00:49:35;;;;;;;2.72;2.13;;;;;;;;;;6308110;22;20034;-84
2023/05/31 00:52:01;;;;;;;4.30;2.78;;;;;;;;;;6282500;22;20015;-84
2023/05/31 00:54:27;;;;;;;3.70;2.03;;;;;;;;;;6281780;22;20015;-85
2023/05/31 00:56:54;;;;;;;3.15;2.78;;;;;;;;;;6282242;22;20015;-85
2023/05/31 00:59:20;;;;;;;4.00;3.00;;;;;;;;;;6308903;22;20012;-85
2023/05/31 01:01:46;;;;;;;2.70;2.50;;;;;;;;;;6282993;22;20090;-85
2023/05/31 01:04:13;;;;;;;3.30;2.60;;;;;;;;;;6282228;22;20069;-84
2023/05/31 01:06:39;;;;;;;2.92;2.70;;;;;;;;;;6283110;22;20307;-85
2023/05/31 01:09:09;;;;;;;3.20;3.00;;;;;;;;;;6307855;22;20015;-85
2023/05/31 01:11:35;;;;;;;3.33;3.08;;;;;;;;;;6282997;22;20438;-85
2023/05/31 01:14:10;;;;;;;3.45;3.15;;;;;;;;;;6282048;22;20337;-84
2023/05/31 01:16:41;;;;;;;3.83;3.05;;;;;;;;;;6308129;22;20011;-85
2023/05/31 01:19:15;;;;;;;5.18;4.15;;;;;;;;;;6307786;22;20456;-84
2023/05/31 01:21:51;;;;;;;4.57;3.75;;;;;;;;;;6308020;22;20026;-84
2023/05/31 01:24:23;;;;;;;4.75;3.65;;;;;;;;;;6281630;22;20016;-84
2023/05/31 01:26:55;;;;;;;5.03;3.88;;;;;;;;;;6308011;22;20080;-85
2023/05/31 01:29:25;;;;;;;4.85;3.60;;;;;;;;;;6281848;22;20512;-84
2023/05/31 01:31:51;;;;;;;3.78;3.47;;;;;;;;;;6281445;22;20032;-84
2023/05/31 01:34:18;;;;;;;4.03;3.72;;;;;;;;;;6307248;22;20011;-84
2023/05/31 01:36:44;;;;;;;3.85;3.50;;;;;;;;;;6282117;22;20341;-84
2023/05/31 01:39:11;;;;;;;5.32;4.03;;;;;;;;;;6282120;22;20019;-85
2023/05/31 01:41:39;;;;;;;4.15;3.75;;;;;;;;;;6281246;22;20015;-85
2023/05/31 01:44:06;;;;;;;5.00;4.35;;;;;;;;;;6307476;22;20047;-84
2023/05/31 01:46:32;;;;;;;4.65;4.10;;;;;;;;;;6308185;22;20015;-84
2023/05/31 01:48:58;;;;;;;4.85;3.72;;;;;;;;;;6281713;22;20037;-84
2023/05/31 01:51:25;;;;;;;5.45;4.75;;;;;;;;;;6281631;22;20079;-84
2023/05/31 01:53:51;;;;;;;5.72;4.30;;;;;;;;;;6281698;22;20129;-84
2023/05/31 01:56:19;;;;;;;4.43;4.00;;;;;;;;;;6281624;22;20019;-84
2023/05/31 01:58:48;;;;;;;5.18;3.70;;;;;;;;;;6307267;22;20019;-84
2023/05/31 02:01:16;;;;;;;4.35;3.95;;;;;;;;;;6282509;22;20012;-84
2023/05/31 02:03:42;;;;;;;4.28;3.85;;;;;;;;;;6281510;22;20019;-85
2023/05/31 02:06:12;;;;;;;5.65;3.28;;;;;;;;;;6281513;22;20023;-84
2023/05/31 02:08:38;;;;;;;8.07;4.35;;;;;;;;;;6281323;22;20019;-85
2023/05/31 02:11:05;;;;;;;4.40;3.97;;;;;;;;;;6281442;22;20022;-85
2023/05/31 02:13:31;;;;;;;6.85;4.75;;;;;;;;;;6282325;22;20022;-85
2023/05/31 02:15:57;;;;;;;3.97;3.63;;;;;;;;;;6308453;22;20038;-84
2023/05/31 02:18:26;;;;;;;4.65;4.25;;;;;;;;;;6280811;22;20015;-84
2023/05/31 02:20:53;;;;;;;5.13;4.53;;;;;;;;;;6308096;22;20484;-85
2023/05/31 02:23:19;;;;;;;5.30;4.13;;;;;;;;;;6282472;22;20057;-85
2023/05/31 02:25:49;;;;;;;5.55;4.05;;;;;;;;;;6281320;22;20383;-84
2023/05/31 02:28:16;;;;;;;4.70;3.80;;;;;;;;;;6282244;22;20314;-84
2023/05/31 02:30:42;;;;;;;5.13;4.15;;;;;;;;;;6307138;22;20076;-85
2023/05/31 02:33:09;;;;;;;4.70;4.25;;;;;;;;;;6281179;22;20025;-84
2023/05/31 02:35:35;;;;;;;5.10;4.60;;;;;;;;;;6281288;22;20099;-85
2023/05/31 02:38:01;;;;;;;4.50;3.90;;;;;;;;;;6306634;22;20015;-85
2023/05/31 02:40:27;;;;;;;4.82;4.43;;;;;;;;;;6280641;22;20011;-85
2023/05/31 02:42:54;;;;;;;4.97;4.07;;;;;;;;;;6282051;22;20015;-85
2023/05/31 02:45:20;;;;;;;5.63;4.70;;;;;;;;;;6306414;22;20023;-85
2023/05/31 02:47:46;;;;;;;6.22;4.88;;;;;;;;;;6281506;22;20311;-85
2023/05/31 02:50:12;;;;;;;5.00;4.50;;;;;;;;;;6307097;22;20023;-85
2023/05/31 02:52:38;;;;;;;6.13;4.68;;;;;;;;;;6306339;22;20098;-85
2023/05/31 02:55:05;;;;;;;8.32;4.78;;;;;;;;;;6306839;22;20016;-85
2023/05/31 02:57:32;;;;;;;6.30;5.10;;;;;;;;;;6281155;22;20018;-85
2023/05/31 02:59:58;;;;;;;4.45;4.07;;;;;;;;;;6280893;22;20019;-84
2023/05/31 03:02:25;;;;;;;5.72;4.30;;;;;;;;;;6306767;22;20011;-85
2023/05/31 03:04:52;;;;;;;5.55;4.20;;;;;;;;;;6281676;22;20145;-85
2023/05/31 03:07:18;;;;;;;8.18;5.35;;;;;;;;;;6280751;22;20110;-85
2023/05/31 03:09:44;;;;;;;6.63;5.28;;;;;;;;;;6280852;22;20019;-85
2023/05/31 03:12:10;;;;;;;5.70;5.03;;;;;;;;;;6281090;22;20068;-85
2023/05/31 03:14:37;;;;;;;5.38;4.80;;;;;;;;;;6280808;22;20026;-84
2023/05/31 03:17:03;;;;;;;6.18;5.55;;;;;;;;;;6280826;22;20107;-85
2023/05/31 03:19:29;;;;;;;6.63;5.82;;;;;;;;;;6306032;22;20173;-85
2023/05/31 03:21:55;;;;;;;7.45;5.32;;;;;;;;;;6280730;22;20391;-85
2023/05/31 03:24:22;;;;;;;6.18;5.47;;;;;;;;;;6282038;22;20011;-85
2023/05/31 03:26:48;;;;;;;7.55;5.63;;;;;;;;;;6280883;22;20016;-85
2023/05/31 03:29:14;;;;;;;5.85;5.25;;;;;;;;;;6280765;22;20019;-85
2023/05/31 03:31:41;;;;;;;9.85;6.25;;;;;;;;;;6280761;22;20073;-85
2023/05/31 03:34:07;;;;;;;6.63;6.03;;;;;;;;;;6280706;22;20094;-85
2023/05/31 03:36:33;;;;;;;8.27;6.53;;;;;;;;;;6306851;22;20434;-85
2023/05/31 03:38:59;;;;;;;8.82;6.78;;;;;;;;;;6280788;22;20064;-85
2023/05/31 03:41:25;;;;;;;6.00;5.40;;;;;;;;;;6306419;22;20337;-85
2023/05/31 03:43:52;;;;;;;8.00;6.38;;;;;;;;;;6306530;22;20380;-85
2023/05/31 03:46:18;;;;;;;9.18;6.97;;;;;;;;;;6306450;22;20061;-85
2023/05/31 03:48:44;;;;;;;7.20;5.65;;;;;;;;;;6280331;22;20015;-85
2023/05/31 03:51:10;;;;;;;11.55;6.80;;;;;;;;;;6281610;22;20023;-85
2023/05/31 03:53:36;;;;;;;7.90;6.35;;;;;;;;;;6307454;22;20141;-85
2023/05/31 03:56:02;;;;;;;7.68;6.10;;;;;;;;;;6281083;22;20015;-85
2023/05/31 03:58:29;;;;;;;7.75;6.07;;;;;;;;;;6281696;22;20102;-85
2023/05/31 04:00:55;;;;;;;10.13;6.25;;;;;;;;;;6281519;22;20015;-85
2023/05/31 04:03:21;;;;;;;8.95;6.65;;;;;;;;;;6306318;22;20445;-85
2023/05/31 04:05:47;;;;;;;10.02;6.65;;;;;;;;;;6280772;22;20396;-84
2023/05/31 04:08:13;;;;;;;11.45;6.93;;;;;;;;;;6306299;22;20016;-85
2023/05/31 04:10:40;;;;;;;10.77;6.22;;;;;;;;;;6281512;22;20023;-85
2023/05/31 04:13:06;;;;;;;8.40;5.88;;;;;;;;;;6282354;22;20418;-84
2023/05/31 04:15:32;;;;;;;7.90;5.80;;;;;;;;;;6308713;22;20090;-84
2023/05/31 04:17:58;;;;;;;9.52;6.53;;;;;;;;;;6308249;22;20038;-85
2023/05/31 04:20:24;;;;;;;6.68;5.38;;;;;;;;;;6282406;22;20023;-84
2023/05/31 04:22:52;;;;;;;7.70;5.80;;;;;;;;;;6308543;22;20116;-84
2023/05/31 04:25:18;;;;;;;9.75;5.68;;;;;;;;;;6283475;22;20072;-84
2023/05/31 04:27:44;;;;;;;8.90;6.88;;;;;;;;;;6283020;22;20011;-84
2023/05/31 04:30:10;;;;;;;7.65;6.35;;;;;;;;;;6282345;22;20382;-84
2023/05/31 04:32:37;;;;;;;11.52;6.75;;;;;;;;;;6283233;22;20022;-84
2023/05/31 04:35:04;;;;;;;8.43;6.57;;;;;;;;;;6308120;22;20337;-84
2023/05/31 04:37:30;;;;;;;9.80;6.13;;;;;;;;;;6309153;22;20015;-84
2023/05/31 04:39:57;;;;;;;9.93;5.63;;;;;;;;;;6282331;22;20015;-84
2023/05/31 04:42:27;;;;;;;12.32;7.07;;;;;;;;;;6283098;22;20318;-85
2023/05/31 04:45:01;;;;;;;12.77;7.22;;;;;;;;;;6309037;22;20087;-84
2023/05/31 04:47:31;;;;;;;10.07;7.53;;;;;;;;;;6309085;22;20016;-84
2023/05/31 04:49:57;;;;;;;10.60;7.47;;;;;;;;;;6282177;22;20022;-84
2023/05/31 04:52:31;;;;;;;9.48;7.20;;;;;;;;;;6308184;22;20136;-84
2023/05/31 04:54:58;;;;;;;11.47;7.40;;;;;;;;;;6309012;22;20015;-84
2023/05/31 04:57:26;;;;;;;10.50;7.05;;;;;;;;;;6282628;22;20018;-84
2023/05/31 04:59:53;;;;;;;11.32;7.35;;;;;;;;;;6281975;22;20062;-84
2023/05/31 05:02:19;;;;;;;12.13;6.90;;;;;;;;;;6282027;22;20022;-84
2023/05/31 05:04:47;;;;;;;12.13;7.22;;;;;;;;;;6281952;22;20015;-85
2023/05/31 05:07:13;;;;;;;8.68;6.95;;;;;;;;;;6307870;22;20015;-84
2023/05/31 05:09:40;;;;;;;11.38;7.68;;;;;;;;;;6307838;22;20104;-84
2023/05/31 05:12:07;;;;;;;11.20;8.18;;;;;;;;;;6281926;22;20015;-84
2023/05/31 05:14:33;;;;;;;12.02;7.47;;;;;;;;;;6282235;22;20441;-84
2023/05/31 05:17:00;;;;;;;10.15;6.90;;;;;;;;;;6281995;22;20027;-83
2023/05/31 05:19:26;;;;;;;10.00;7.53;;;;;;;;;;6282018;22;20373;-83
2023/05/31 05:21:52;;;;;;;12.18;7.53;;;;;;;;;;6281304;22;20344;-84
2023/05/31 05:24:21;;;;;;;14.30;7.47;;;;;;;;;;6308685;22;20073;-83
2023/05/31 05:26:47;;;;;;;10.48;6.90;;;;;;;;;;6282242;22;20015;-83
2023/05/31 05:29:13;;;;;;;13.07;7.70;;;;;;;;;;6282964;22;20112;-83
2023/05/31 05:31:39;;;;;;;11.70;7.07;;;;;;;;;;6307271;22;20026;-83
2023/05/31 05:34:05;;;;;;;12.05;7.43;;;;;;;;;;6281763;22;20054;-83
2023/05/31 05:36:31;;;;;;;9.70;7.82;;;;;;;;;;6283000;22;20047;-83
2023/05/31 05:39:03;;;;;;;10.27;6.95;;;;;;;;;;6281817;22;20070;-83
2023/05/31 05:41:30;;;;;;;12.05;7.32;;;;;;;;;;6307490;22;20011;-83
2023/05/31 05:43:56;;;;;;;9.23;7.65;;;;;;;;;;6282033;22;20061;-83
2023/05/31 05:46:22;;;;;;;11.30;8.82;;;;;;;;;;6308560;22;20019;-83
2023/05/31 05:48:48;;;;;;;9.73;7.97;;;;;;;;;;6283003;22;20334;-83
2023/05/31 05:51:14;;;;;;;11.25;7.55;;;;;;;;;;6282799;22;20018;-83
2023/05/31 05:53:40;;;;;;;12.40;8.05;;;;;;;;;;6282673;22;20015;-83
2023/05/31 05:56:06;;;;;;;9.93;7.35;;;;;;;;;;6307487;22;20016;-83
2023/05/31 05:58:32;;;;;;;9.10;7.63;;;;;;;;;;6307435;22;20019;-82
2023/05/31 06:00:59;;;;;;;12.13;7.57;;;;;;;;;;6281548;22;20019;-82
2023/05/31 06:03:25;;;;;;;10.80;7.30;;;;;;;;;;6307323;22;20015;-82
2023/05/31 06:05:51;;;;;;;11.77;7.63;;;;;;;;;;6281657;22;20019;-82
2023/05/31 06:08:18;;;;;;;13.63;8.13;;;;;;;;;;6308364;22;20012;-83
2023/05/31 06:10:44;;;;;;;12.02;7.82;;;;;;;;;;6281143;22;20015;-83
2023/05/31 06:13:11;;;;;;;12.40;7.70;;;;;;;;;;6281459;22;20019;-83
2023/05/31 06:15:37;;;;;;;10.50;7.93;;;;;;;;;;6281749;22;20019;-82
2023/05/31 06:18:04;;;;;;;10.30;7.38;;;;;;;;;;6281292;22;21095;-82
2023/05/31 06:20:30;;;;;;;11.05;8.07;;;;;;;;;;6281694;22;20024;-82
2023/05/31 06:22:56;;;;;;;11.38;8.10;;;;;;;;;;6281530;22;20086;-82
2023/05/31 06:25:22;;;;;;;12.68;8.05;;;;;;;;;;6307849;22;20372;-83
2023/05/31 06:27:49;;;;;;;11.02;7.88;;;;;;;;;;6281590;22;20019;-82
2023/05/31 06:30:15;;;;;;;11.75;7.93;;;;;;;;;;6282419;22;20011;-83
2023/05/31 06:32:41;;;;;;;11.60;8.40;;;;;;;;;;6281547;22;20326;-82
2023/05/31 06:35:08;;;;;;;13.70;9.00;;;;;;;;;;6281306;22;20022;-82
2023/05/31 06:37:34;;;;;;;14.07;7.95;;;;;;;;;;6282551;22;20015;-82
2023/05/31 06:40:00;;;;;;;11.82;7.97;;;;;;;;;;6281450;22;20026;-82
2023/05/31 06:42:26;;;;;;;12.32;7.80;;;;;;;;;;6281132;22;20027;-82
2023/05/31 06:44:52;;;;;;;9.88;7.50;;;;;;;;;;6281099;22;20023;-82
2023/05/31 06:47:18;;;;;;;10.50;7.47;;;;;;;;;;6306933;22;20157;-82
2023/05/31 06:49:44;;;;;;;10.05;6.82;;;;;;;;;;6281678;22;20330;-82
2023/05/31 06:52:12;;;;;;;9.55;6.93;;;;;;;;;;6307240;22;20034;-83
2023/05/31 06:54:38;;;;;;;12.02;6.70;;;;;;;;;;6306884;22;20119;-83
2023/05/31 06:57:08;;;;;;;6.70;6.07;;;;;;;;;;6306912;22;20042;-82
2023/05/31 06:59:34;;;;;;;9.30;6.45;;;;;;;;;;6307887;22;20015;-82
2023/05/31 07:02:00;;;;;;;8.10;6.72;;;;;;;;;;6281264;22;20547;-82
2023/05/31 07:04:26;;;;;;;9.57;6.63;;;;;;;;;;6306761;22;20445;-82
2023/05/31 07:06:53;;;;;;;8.35;6.38;;;;;;;;;;6282140;22;20023;-82
2023/05/31 07:09:19;;;;;;;9.40;6.40;;;;;;;;;;6280989;22;20019;-82
2023/05/31 07:11:45;;;;;;;8.95;6.15;;;;;;;;;;6282169;22;20042;-82
2023/05/31 07:14:11;;;;;;;7.63;5.80;;;;;;;;;;6306665;22;20011;-82
2023/05/31 07:16:37;;;;;;;8.85;5.97;;;;;;;;;;6281059;22;20503;-82
2023/05/31 07:19:03;;;;;;;8.52;6.63;;;;;;;;;;6280396;22;20030;-82
2023/05/31 07:21:30;;;;;;;7.00;5.80;;;;;;;;;;6280857;22;20042;-82
2023/05/31 07:23:56;;;;;;;9.75;6.00;;;;;;;;;;6306701;22;20015;-83
2023/05/31 07:26:23;;;;;;;6.40;5.32;;;;;;;;;;6307687;22;20099;-82
2023/05/31 07:28:52;;;;;;;8.15;6.10;;;;;;;;;;6281085;22;20030;-83
2023/05/31 07:31:19;;;;;;;8.60;6.60;;;;;;;;;;6306592;22;20073;-83
2023/05/31 07:33:45;;;;;;;11.13;6.20;;;;;;;;;;6280734;22;20026;-83
2023/05/31 07:36:11;;;;;;;6.97;5.63;;;;;;;;;;6281995;22;20019;-83
2023/05/31 07:38:37;;;;;;;7.85;5.43;;;;;;;;;;6306543;22;20015;-83
2023/05/31 07:41:04;;;;;;;8.23;5.35;;;;;;;;;;6306465;22;20018;-83
2023/05/31 07:43:30;;;;;;;9.25;5.90;;;;;;;;;;6280695;22;20011;-83
2023/05/31 07:45:57;;;;;;;8.00;4.78;;;;;;;;;;6282064;22;20016;-82
2023/05/31 07:48:23;;;;;;;7.45;5.25;;;;;;;;;;6283090;22;20391;-83
2023/05/31 07:50:50;;;;;;;6.18;4.78;;;;;;;;;;6283667;22;20015;-83
2023/05/31 07:53:16;;;;;;;5.80;4.00;;;;;;;;;;6308920;22;20015;-82
2023/05/31 07:55:42;;;;;;;4.85;4.40;;;;;;;;;;6308605;22;20015;-83
2023/05/31 07:58:19;;;;;;;5.00;4.28;;;;;;;;;;6282705;22;20019;-83
2023/05/31 08:00:46;;;;;;;5.32;3.92;;;;;;;;;;6283789;22;20015;-83
2023/05/31 08:03:12;;;;;;;8.55;4.47;;;;;;;;;;6308547;22;20022;-84
2023/05/31 08:05:38;;;;;;;5.13;3.75;;;;;;;;;;6308070;22;20090;-83
2023/05/31 08:08:05;;;;;;;8.40;4.53;;;;;;;;;;6283108;22;20026;-84
2023/05/31 08:10:32;;;;;;;9.25;4.40;;;;;;;;;;6283058;22;20445;-83
2023/05/31 08:12:58;;;;;;;8.32;4.25;;;;;;;;;;6282763;22;20015;-84
2023/05/31 08:15:24;;;;;;;4.60;3.67;;;;;;;;;;6282707;22;20336;-83
2023/05/31 08:17:51;;;;;;;4.13;3.40;;;;;;;;;;6282607;22;20034;-83
2023/05/31 08:20:17;;;;;;;9.32;3.85;;;;;;;;;;6282659;22;20017;-83
2023/05/31 08:22:44;;;;;;;6.47;3.25;;;;;;;;;;6308346;22;20023;-83
2023/05/31 08:25:12;;;;;;;5.25;3.28;;;;;;;;;;6308350;22;20333;-82
2023/05/31 08:27:40;;;;;;;4.30;2.80;;;;;;;;;;6282480;22;20019;-83
2023/05/31 08:30:07;;;;;;;6.60;3.20;;;;;;;;;;6282914;22;20019;-82
2023/05/31 08:32:33;;;;;;;4.47;3.35;;;;;;;;;;6282513;22;20024;-82
2023/05/31 08:34:59;;;;;;;5.38;2.75;;;;;;;;;;6282445;22;20019;-83
2023/05/31 08:37:26;;;;;;;6.40;3.17;;;;;;;;;;6282332;22;20020;-83
2023/05/31 08:39:52;;;;;;;4.57;2.28;;;;;;;;;;6308163;22;20015;-82
2023/05/31 08:42:34;;;;;;;7.13;2.55;;;;;;;;;;6309049;22;20098;-83
2023/05/31 08:45:01;;;;;;;5.22;3.40;;;;;;;;;;6307803;22;20016;-83
2023/05/31 08:47:37;;;;;;;3.72;2.53;;;;;;;;;;6282361;22;20026;-84
2023/05/31 08:50:04;;;;;;;4.07;1.83;;;;;;;;;;6283417;22;20076;-84
2023/05/31 08:52:31;;;;;;;5.97;3.08;;;;;;;;;;6282544;22;20019;-84
2023/05/31 08:54:58;;;;;;;6.82;2.30;;;;;;;;;;6282523;22;20015;-84
2023/05/31 08:57:26;;;;;;;3.63;2.17;;;;;;;;;;6281706;22;20015;-84
2023/05/31 08:59:52;;;;;;;4.63;2.30;;;;;;;;;;6282256;22;20027;-84
2023/05/31 09:02:18;;;;;;;3.88;2.17;;;;;;;;;;6283059;22;20054;-84
2023/05/31 09:04:45;;;;;;;5.30;2.45;;;;;;;;;;6309015;22;20019;-84
2023/05/31 09:07:11;;;;;;;3.47;2.45;;;;;;;;;;6308101;22;20030;-84
2023/05/31 09:09:37;;;;;;;8.23;2.60;;;;;;;;;;6281805;22;20022;-84
2023/05/31 09:12:03;;;;;;;8.20;2.20;;;;;;;;;;6308779;22;20011;-84
2023/05/31 09:14:29;;;;;;;6.40;1.83;;;;;;;;;;6308904;22;20023;-84
2023/05/31 09:16:57;;;;;;;4.50;2.05;;;;;;;;;;6281990;22;20027;-84
2023/05/31 09:19:23;;;;;;;5.03;2.08;;;;;;;;;;6281842;22;20069;-84
2023/05/31 09:21:52;;;;;;;3.65;1.90;;;;;;;;;;6282248;22;20054;-84
2023/05/31 09:24:19;;;;;;;3.50;2.00;;;;;;;;;;6281933;22;20450;-84
2023/05/31 09:26:49;;;;;;;5.85;2.15;;;;;;;;;;6307732;22;20086;-84
2023/05/31 09:29:17;;;;;;;5.65;1.70;;;;;;;;;;6281828;22;20026;-84
2023/05/31 09:31:43;;;;;;;5.45;1.80;;;;;;;;;;6282404;22;20089;-85
2023/05/31 09:34:26;;;;;;;3.75;2.03;;;;;;;;;;6307636;22;20019;-84
2023/05/31 09:36:52;;;;;;;6.00;2.58;;;;;;;;;;6281889;22;20073;-85
2023/05/31 09:39:20;;;;;;;4.13;1.90;;;;;;;;;;6281969;22;20016;-84
2023/05/31 09:41:50;;;;;;;6.07;1.98;;;;;;;;;;6308461;22;20015;-84
2023/05/31 09:44:16;;;;;;;2.92;1.50;;;;;;;;;;6281439;22;20020;-84
2023/05/31 09:46:42;;;;;;;4.35;2.22;;;;;;;;;;6281790;22;20023;-84
2023/05/31 09:49:09;;;;;;;5.50;1.98;;;;;;;;;;6281716;22;20342;-84
2023/05/31 09:51:36;;;;;;;3.33;1.42;;;;;;;;;;6281474;22;20022;-85
2023/05/31 09:54:17;;;;;;;4.90;1.75;;;;;;;;;;6281647;22;20015;-85
2023/05/31 09:56:43;;;;;;;4.38;1.95;;;;;;;;;;6282057;22;20016;-85
2023/05/31 09:59:10;;;;;;;3.90;1.42;;;;;;;;;;6282674;22;20023;-85
2023/05/31 10:01:37;;;;;;;4.35;1.58;;;;;;;;;;6281474;22;20051;-85
2023/05/31 10:04:04;;;;;;;2.65;1.65;;;;;;;;;;6308421;22;20015;-85
2023/05/31 10:06:34;;;;;;;4.70;1.70;;;;;;;;;;6308385;22;20310;-85
2023/05/31 10:09:02;;;;;;;5.68;1.20;;;;;;;;;;6281440;22;20436;-85
2023/05/31 10:11:33;;;;;;;6.00;1.80;;;;;;;;;;6281814;22;20445;-84
2023/05/31 10:14:00;;;;;;;3.25;1.50;;;;;;;;;;6281786;22;20020;-86
2023/05/31 10:16:36;;;;;;;4.80;1.42;;;;;;;;;;6282731;22;20073;-86
2023/05/31 10:19:05;;;;;;;6.97;1.83;;;;;;;;;;6307373;22;20051;-86
2023/05/31 10:21:31;;;;;;;4.75;1.50;;;;;;;;;;6281063;22;20022;-86
2023/05/31 10:24:01;;;;;;;4.57;1.95;;;;;;;;;;6307215;22;20370;-85
2023/05/31 10:26:30;;;;;;;3.80;1.23;;;;;;;;;;6307106;22;20015;-85
2023/05/31 10:29:02;;;;;;;4.57;1.60;;;;;;;;;;6281705;22;20085;-86
2023/05/31 10:31:34;;;;;;;4.38;1.60;;;;;;;;;;6282393;22;20019;-86
2023/05/31 10:34:03;;;;;;;7.00;1.48;;;;;;;;;;6281657;22;20463;-85
2023/05/31 10:36:29;;;;;;;5.03;1.42;;;;;;;;;;6280929;22;20072;-86
2023/05/31 10:39:01;;;;;;;3.38;1.55;;;;;;;;;;6281710;22;20476;-85
2023/05/31 10:41:32;;;;;;;3.55;1.35;;;;;;;;;;6280870;22;20015;-87
2023/05/31 10:44:03;;;;;;;3.22;1.27;;;;;;;;;;6281454;22;20447;-86
2023/05/31 10:46:31;;;;;;;4.68;1.40;;;;;;;;;;6308016;22;20038;-86
2023/05/31 10:48:57;;;;;;;6.13;2.08;;;;;;;;;;6282127;22;20025;-86
2023/05/31 10:51:46;;;;;;;3.38;1.42;;;;;;;;;;6281303;22;20054;-86
2023/05/31 10:54:26;;;;;;;2.75;1.40;;;;;;;;;;6282192;22;20027;-85
2023/05/31 10:56:53;;;;;;;5.25;1.83;;;;;;;;;;6306528;22;20016;-85
2023/05/31 10:59:19;;;;;;;3.55;1.35;;;;;;;;;;6307160;22;20022;-85
2023/05/31 11:01:46;;;;;;;3.33;1.58;;;;;;;;;;6306656;22;20015;-85
2023/05/31 11:04:23;;;;;;;2.80;1.50;;;;;;;;;;6282006;22;20015;-85
2023/05/31 11:06:52;;;;;;;2.38;1.08;;;;;;;;;;6280914;22;20467;-85
2023/05/31 11:09:19;;;;;;;5.32;1.60;;;;;;;;;;6281373;22;20022;-84
2023/05/31 11:11:52;;;;;;;4.40;1.48;;;;;;;;;;6307816;22;20321;-85
2023/05/31 11:14:27;;;;;;;4.65;2.10;;;;;;;;;;6281979;22;20016;-85
2023/05/31 11:16:53;;;;;;;2.40;1.30;;;;;;;;;;6306784;22;20094;-85
2023/05/31 11:19:33;;;;;;;3.97;1.25;;;;;;;;;;6281308;22;20023;-85
2023/05/31 11:22:07;;;;;;;3.78;1.45;;;;;;;;;;6307682;22;20019;-85
2023/05/31 11:24:52;;;;;;;4.32;1.60;;;;;;;;;;6280838;22;20062;-82
2023/05/31 11:27:19;;;;;;;3.78;1.50;;;;;;;;;;6281268;22;20064;-82
2023/05/31 11:29:48;;;;;;;3.22;1.58;;;;;;;;;;6307587;22;20043;-83
2023/05/31 11:32:15;;;;;;;5.15;1.80;;;;;;;;;;6307466;22;20019;-83
2023/05/31 11:34:56;;;;;;;2.47;0.80;;;;;;;;;;6281283;22;20341;-83
2023/05/31 11:37:22;;;;;;;3.53;1.25;;;;;;;;;;6306478;22;20019;-83
2023/05/31 11:39:48;;;;;;;2.70;1.40;;;;;;;;;;6280704;22;20023;-83
2023/05/31 11:42:15;;;;;;;2.53;0.88;;;;;;;;;;6280604;22;20011;-84
2023/05/31 11:44:46;;;;;;;5.13;1.60;;;;;;;;;;6306905;22;20012;-84
2023/05/31 11:47:19;;;;;;;4.88;1.40;;;;;;;;;;6306543;22;20015;-84
2023/05/31 11:49:46;;;;;;;4.38;1.23;;;;;;;;;;6306449;22;20374;-84
2023/05/31 11:52:15;;;;;;;2.80;1.40;;;;;;;;;;6280761;22;20053;-83
2023/05/31 11:54:43;;;;;;;3.17;1.60;;;;;;;;;;6306766;22;20015;-83
2023/05/31 11:57:09;;;;;;;3.00;1.50;;;;;;;;;;6281730;22;20152;-83
2023/05/31 11:59:36;;;;;;;3.65;1.40;;;;;;;;;;6306448;22;20011;-83
2023/05/31 12:02:03;;;;;;;3.58;1.45;;;;;;;;;;6281668;22;20022;-84
2023/05/31 12:04:30;;;;;;;5.00;1.48;;;;;;;;;;6281725;22;20030;-83
2023/05/31 12:06:56;;;;;;;5.07;1.40;;;;;;;;;;6282018;22;20015;-83
2023/05/31 12:09:29;;;;;;;3.80;1.20;;;;;;;;;;6280805;22;20045;-82
2023/05/31 12:11:56;;;;;;;4.32;1.95;;;;;;;;;;6280620;22;20015;-83
2023/05/31 12:14:28;;;;;;;5.47;2.03;;;;;;;;;;6280868;22;20068;-83
2023/05/31 12:16:55;;;;;;;4.85;2.22;;;;;;;;;;6307568;22;20019;-82
2023/05/31 12:19:21;;;;;;;5.68;2.20;;;;;;;;;;6306055;22;20022;-83
2023/05/31 12:21:47;;;;;;;4.32;1.90;;;;;;;;;;6306779;22;20421;-82
2023/05/31 12:24:15;;;;;;;4.28;1.60;;;;;;;;;;6280493;22;20019;-83
2023/05/31 12:26:43;;;;;;;4.63;1.77;;;;;;;;;;6280625;22;20523;-82
2023/05/31 12:29:11;;;;;;;6.10;1.90;;;;;;;;;;6306645;22;20040;-82
2023/05/31 12:31:37;;;;;;;2.45;1.60;;;;;;;;;;6308363;22;20329;-82
2023/05/31 12:34:10;;;;;;;3.90;1.33;;;;;;;;;;6308270;22;20019;-82
2023/05/31 12:36:46;;;;;;;5.78;1.33;;;;;;;;;;6282702;22;20015;-82
2023/05/31 12:39:14;;;;;;;4.05;1.75;;;;;;;;;;6282556;22;20461;-82
2023/05/31 12:41:44;;;;;;;5.00;1.90;;;;;;;;;;6282131;22;20114;-83
2023/05/31 12:44:12;;;;;;;3.17;2.00;;;;;;;;;;6308039;22;20429;-82
2023/05/31 12:46:42;;;;;;;5.55;2.13;;;;;;;;;;6283360;22;20016;-84
2023/05/31 12:49:15;;;;;;;4.10;1.60;;;;;;;;;;6309179;22;20011;-82
2023/05/31 12:51:42;;;;;;;4.00;2.00;;;;;;;;;;6308043;22;20025;-83
2023/05/31 12:54:12;;;;;;;5.47;1.77;;;;;;;;;;6281942;22;20019;-83
2023/05/31 12:56:38;;;;;;;3.53;1.70;;;;;;;;;;6282333;22;20015;-83
2023/05/31 12:59:04;;;;;;;2.88;1.75;;;;;;;;;;6282837;22;20023;-83
2023/05/31 13:01:31;;;;;;;4.85;1.70;;;;;;;;;;6282370;22;20081;-83
2023/05/31 13:03:57;;;;;;;3.67;1.75;;;;;;;;;;6282461;22;20464;-84
2023/05/31 13:06:23;;;;;;;3.90;1.63;;;;;;;;;;6283154;22;20433;-84
2023/05/31 13:08:49;;;;;;;4.57;2.25;;;;;;;;;;6307501;22;20026;-84
2023/05/31 13:11:15;;;;;;;5.45;1.90;;;;;;;;;;6307926;22;20041;-84
2023/05/31 13:13:42;;;;;;;3.45;1.75;;;;;;;;;;6283064;22;20015;-84
2023/05/31 13:16:08;;;;;;;4.10;1.40;;;;;;;;;;6308843;22;20043;-83
2023/05/31 13:18:34;;;;;;;5.50;1.65;;;;;;;;;;6281873;22;20023;-83
2023/05/31 13:21:00;;;;;;;5.05;2.05;;;;;;;;;;6282952;22;20433;-83
2023/05/31 13:23:26;;;;;;;3.55;1.90;;;;;;;;;;6281990;22;20011;-84
2023/05/31 13:25:53;;;;;;;4.18;1.65;;;;;;;;;;6282309;22;20027;-83
2023/05/31 13:28:21;;;;;;;2.83;1.95;;;;;;;;;;6281915;22;20019;-84
2023/05/31 13:30:47;;;;;;;2.65;1.55;;;;;;;;;;6281910;22;20458;-84
2023/05/31 13:33:13;;;;;;;5.25;1.73;;;;;;;;;;6283096;22;20047;-83
2023/05/31 13:35:40;;;;;;;5.47;1.38;;;;;;;;;;6281903;22;20019;-84
2023/05/31 13:38:06;;;;;;;4.68;1.58;;;;;;;;;;6281894;22;20073;-84
2023/05/31 13:40:33;;;;;;;3.97;1.90;;;;;;;;;;6281363;22;20018;-83
2023/05/31 13:43:00;;;;;;;4.47;1.45;;;;;;;;;;6306718;22;20041;-84
2023/05/31 13:45:26;;;;;;;4.68;1.60;;;;;;;;;;6281841;22;20019;-83
2023/05/31 13:47:52;;;;;;;4.07;1.15;;;;;;;;;;6308640;22;20019;-84
2023/05/31 13:50:18;;;;;;;4.50;1.30;;;;;;;;;;6281882;22;20094;-83
2023/05/31 13:52:44;;;;;;;3.50;1.40;;;;;;;;;;6307548;22;20020;-83
2023/05/31 13:55:10;;;;;;;4.18;1.52;;;;;;;;;;6307478;22;20096;-84
2023/05/31 13:57:36;;;;;;;4.70;1.48;;;;;;;;;;6281821;22;20019;-83
2023/05/31 14:00:04;;;;;;;3.97;1.55;;;;;;;;;;6281928;22;20023;-84
2023/05/31 14:02:32;;;;;;;6.05;1.30;;;;;;;;;;6307398;22;20011;-84
2023/05/31 14:04:58;;;;;;;6.57;1.45;;;;;;;;;;6281975;22;20019;-84
2023/05/31 14:07:25;;;;;;;2.78;1.40;;;;;;;;;;6281564;22;20019;-83
2023/05/31 14:09:51;;;;;;;4.05;1.20;;;;;;;;;;6281463;22;20015;-83
2023/05/31 14:12:18;;;;;;;3.60;0.93;;;;;;;;;;6281676;22;20019;-83
2023/05/31 14:14:44;;;;;;;3.75;1.27;;;;;;;;;;6281282;22;20019;-84
2023/05/31 14:17:10;;;;;;;3.05;1.35;;;;;;;;;;6281472;22;20049;-84
2023/05/31 14:19:37;;;;;;;2.60;0.70;;;;;;;;;;6307016;22;20046;-83
2023/05/31 14:22:03;;;;;;;3.08;0.80;;;;;;;;;;6307356;22;20026;-83
2023/05/31 14:24:29;;;;;;;1.90;0.90;;;;;;;;;;6281533;22;20054;-82
2023/05/31 14:26:55;;;;;;;3.78;0.80;;;;;;;;;;6307074;22;20022;-82
2023/05/31 14:29:21;;;;;;;4.03;1.00;;;;;;;;;;6281222;22;20034;-83
2023/05/31 14:31:47;;;;;;;3.65;1.00;;;;;;;;;;6307028;22;20041;-83
2023/05/31 14:34:15;;;;;;;6.10;1.30;;;;;;;;;;6281282;22;20456;-83
2023/05/31 14:36:42;;;;;;;3.65;0.77;;;;;;;;;;6307039;22;20093;-83
2023/05/31 14:39:09;;;;;;;4.00;1.00;;;;;;;;;;6308023;22;20011;-83
2023/05/31 14:41:35;;;;;;;4.05;1.08;;;;;;;;;;6281787;22;20019;-83